createdAt,value
2018-08-18T00:00:23.192Z,20.50
2018-08-18T00:02:52.801Z,20.40
2018-08-18T00:05:22.235Z,20.20
2018-08-18T00:07:51.813Z,20.20
2018-08-18T00:10:22.708Z,20.20
2018-08-18T00:12:52.546Z,20.10
2018-08-18T00:15:21.947Z,20.00
2018-08-18T00:17:51.465Z,19.90
2018-08-18T00:20:25.545Z,19.90
2018-08-18T00:22:55.035Z,19.90
2018-08-18T00:25:24.398Z,19.90
2018-08-18T00:27:54.134Z,19.90
2018-08-18T00:30:28.916Z,20.00
2018-08-18T00:32:58.312Z,20.00
2018-08-18T00:35:27.712Z,19.90
2018-08-18T00:37:59.148Z,19.90
2018-08-18T00:40:28.517Z,19.90
2018-08-18T00:42:57.927Z,19.80
2018-08-18T00:45:27.346Z,19.70
2018-08-18T00:47:56.728Z,19.60
2018-08-18T00:50:37.526Z,19.60
2018-08-18T00:53:08.945Z,19.60
2018-08-18T00:55:38.812Z,19.60
2018-08-18T00:58:16.116Z,19.70
2018-08-18T01:00:49.549Z,19.70
2018-08-18T01:03:18.923Z,19.70
2018-08-18T01:05:48.276Z,19.70
2018-08-18T01:08:17.755Z,19.70
2018-08-18T01:10:47.215Z,19.70
2018-08-18T01:13:16.585Z,19.70
2018-08-18T01:15:46.049Z,19.80
2018-08-18T01:18:15.512Z,19.80
2018-08-18T01:20:45.072Z,19.80
2018-08-18T01:23:14.441Z,19.60
2018-08-18T01:25:43.807Z,19.50
2018-08-18T01:28:13.183Z,19.50
2018-08-18T01:30:42.585Z,19.50
2018-08-18T01:33:11.937Z,19.60
2018-08-18T01:35:41.288Z,19.60
2018-08-18T01:38:10.635Z,19.70
2018-08-18T01:40:41.239Z,19.70
2018-08-18T01:43:10.577Z,19.80
2018-08-18T01:45:39.924Z,19.80
2018-08-18T01:48:09.274Z,19.70
2018-08-18T01:50:38.705Z,19.70
2018-08-18T01:53:08.041Z,19.70
2018-08-18T01:55:37.407Z,19.70
2018-08-18T01:58:06.763Z,19.60
2018-08-18T02:00:36.108Z,19.60
2018-08-18T02:03:05.672Z,19.50
2018-08-18T02:05:35.020Z,19.50
2018-08-18T02:08:04.547Z,19.40
2018-08-18T02:10:34.156Z,19.40
2018-08-18T02:13:05.146Z,19.40
2018-08-18T02:15:34.549Z,19.40
2018-08-18T02:18:03.958Z,19.40
2018-08-18T02:20:33.383Z,19.40
2018-08-18T02:23:02.757Z,19.50
2018-08-18T02:25:32.312Z,19.50
2018-08-18T02:28:01.693Z,19.50
2018-08-18T02:30:31.118Z,19.60
2018-08-18T02:33:00.457Z,19.50
2018-08-18T02:35:29.820Z,19.50
2018-08-18T02:37:59.152Z,19.40
2018-08-18T02:40:28.569Z,19.40
2018-08-18T02:42:58.133Z,19.30
2018-08-18T02:45:28.385Z,19.30
2018-08-18T02:48:14.942Z,19.30
2018-08-18T02:50:48.837Z,19.30
2018-08-18T02:53:24.525Z,19.30
2018-08-18T02:55:54.888Z,19.30
2018-08-18T02:58:24.655Z,19.20
2018-08-18T03:00:54.065Z,19.30
2018-08-18T03:03:23.476Z,19.30
2018-08-18T03:05:53.578Z,19.40
2018-08-18T03:08:22.937Z,19.40
2018-08-18T03:10:52.355Z,19.40
2018-08-18T03:13:22.403Z,19.20
2018-08-18T03:15:55.860Z,19.10
2018-08-18T03:18:37.149Z,19.10
2018-08-18T03:21:06.745Z,19.00
2018-08-18T03:23:36.120Z,19.10
2018-08-18T03:26:05.850Z,19.00
2018-08-18T03:28:42.577Z,18.90
2018-08-18T03:31:12.081Z,18.90
2018-08-18T03:33:41.409Z,18.80
2018-08-18T03:36:24.048Z,18.70
2018-08-18T03:38:54.571Z,18.60
2018-08-18T03:41:25.502Z,18.40
2018-08-18T03:43:55.992Z,18.30
2018-08-18T03:46:25.586Z,18.30
2018-08-18T03:48:55.261Z,18.40
2018-08-18T03:51:31.128Z,18.30
2018-08-18T03:54:01.626Z,18.30
2018-08-18T03:56:31.243Z,18.30
2018-08-18T03:59:01.696Z,18.30
2018-08-18T04:01:39.971Z,18.40
2018-08-18T04:04:10.826Z,18.40
2018-08-18T04:06:41.436Z,18.50
2018-08-18T04:09:15.974Z,18.40
2018-08-18T04:11:46.496Z,18.40
2018-08-18T04:14:21.216Z,18.50
2018-08-18T04:16:52.035Z,18.60
2018-08-18T04:19:22.777Z,18.60
2018-08-18T04:21:53.798Z,18.60
2018-08-18T04:24:25.201Z,18.60
2018-08-18T04:26:54.752Z,18.60
2018-08-18T04:29:24.698Z,18.60
2018-08-18T04:31:54.305Z,18.70
2018-08-18T04:34:23.883Z,18.70
2018-08-18T04:36:53.502Z,18.80
2018-08-18T04:39:23.046Z,18.90
2018-08-18T04:41:52.629Z,19.00
2018-08-18T04:44:22.658Z,19.00
2018-08-18T04:46:52.322Z,19.00
2018-08-18T04:49:21.834Z,19.10
2018-08-18T04:51:51.391Z,19.20
2018-08-18T04:54:20.958Z,19.20
2018-08-18T04:56:50.550Z,19.10
2018-08-18T04:59:20.765Z,19.10
2018-08-18T05:01:50.737Z,19.10
2018-08-18T05:04:20.784Z,19.10
2018-08-18T05:06:50.830Z,19.20
2018-08-18T05:09:20.857Z,19.10
2018-08-18T05:11:50.873Z,19.20
2018-08-18T05:14:20.750Z,19.10
2018-08-18T05:16:50.850Z,19.10
2018-08-18T05:19:20.606Z,19.20
2018-08-18T05:21:50.173Z,19.10
2018-08-18T05:24:23.920Z,19.10
2018-08-18T05:26:54.499Z,19.10
2018-08-18T05:29:24.146Z,19.10
2018-08-18T05:31:54.793Z,19.20
2018-08-18T05:34:24.393Z,19.20
2018-08-18T05:36:53.958Z,19.20
2018-08-18T05:39:23.632Z,19.20
2018-08-18T05:41:53.188Z,19.20
2018-08-18T05:44:22.679Z,19.20
2018-08-18T05:46:54.678Z,19.20
2018-08-18T05:49:25.189Z,19.20
2018-08-18T05:51:55.233Z,19.20
2018-08-18T05:54:26.536Z,19.30
2018-08-18T05:56:56.014Z,19.30
2018-08-18T05:59:26.617Z,19.40
2018-08-18T06:01:58.021Z,19.30
2018-08-18T06:04:28.248Z,19.40
2018-08-18T06:06:58.854Z,19.40
2018-08-18T06:09:29.582Z,19.40
2018-08-18T06:12:05.724Z,19.40
2018-08-18T06:14:40.640Z,19.50
2018-08-18T06:17:12.795Z,19.60
2018-08-18T06:19:43.939Z,19.50
2018-08-18T06:22:14.185Z,19.60
2018-08-18T06:24:44.023Z,19.60
2018-08-18T06:27:16.094Z,19.50
2018-08-18T06:29:46.125Z,19.50
2018-08-18T06:32:16.557Z,19.60
2018-08-18T06:34:47.321Z,19.50
2018-08-18T06:37:17.995Z,19.40
2018-08-18T06:39:56.660Z,19.50
2018-08-18T06:42:44.933Z,19.50
2018-08-18T06:45:16.907Z,19.60
2018-08-18T06:47:46.948Z,19.70
2018-08-18T06:50:18.709Z,19.90
2018-08-18T06:52:48.388Z,20.10
2018-08-18T06:55:20.037Z,20.20
2018-08-18T06:57:51.946Z,20.20
2018-08-18T07:00:24.222Z,20.20
2018-08-18T07:02:53.697Z,20.10
2018-08-18T07:05:23.156Z,20.20
2018-08-18T07:07:52.542Z,20.40
2018-08-18T07:10:32.171Z,20.50
2018-08-18T07:13:04.664Z,20.60
2018-08-18T07:15:36.182Z,20.50
2018-08-18T07:18:07.219Z,20.60
2018-08-18T07:20:37.389Z,20.70
2018-08-18T07:23:07.292Z,20.70
2018-08-18T07:25:46.733Z,20.70
2018-08-18T07:28:18.346Z,20.50
2018-08-18T07:30:48.128Z,20.50
2018-08-18T07:33:17.860Z,20.50
2018-08-18T07:35:47.681Z,20.40
2018-08-18T07:38:17.231Z,20.50
2018-08-18T07:40:49.281Z,20.30
2018-08-18T07:43:20.469Z,20.30
2018-08-18T07:45:51.008Z,20.40
2018-08-18T07:48:20.921Z,20.40
2018-08-18T07:50:50.705Z,20.70
2018-08-18T07:53:20.744Z,20.70
2018-08-18T07:55:50.159Z,20.80
2018-08-18T07:58:24.075Z,21.10
2018-08-18T08:00:56.281Z,21.00
2018-08-18T08:03:26.282Z,21.10
2018-08-18T08:05:55.841Z,21.30
2018-08-18T08:08:25.776Z,21.30
2018-08-18T08:10:59.597Z,21.10
2018-08-18T08:13:29.140Z,21.40
2018-08-18T08:15:58.777Z,21.70
2018-08-18T08:18:28.637Z,21.90
2018-08-18T08:20:58.344Z,22.00
2018-08-18T08:23:28.195Z,22.00
2018-08-18T08:25:57.874Z,22.00
2018-08-18T08:28:27.421Z,22.00
2018-08-18T08:30:57.364Z,22.00
2018-08-18T08:33:35.401Z,21.80
2018-08-18T08:36:11.253Z,21.90
2018-08-18T08:38:48.705Z,22.00
2018-08-18T08:41:18.401Z,22.00
2018-08-18T08:43:48.625Z,22.00
2018-08-18T08:46:18.252Z,22.00
2018-08-18T08:48:52.629Z,22.00
2018-08-18T08:51:22.432Z,21.90
2018-08-18T08:53:53.438Z,22.00
2018-08-18T08:56:29.882Z,22.20
2018-08-18T08:58:59.593Z,22.20
2018-08-18T09:01:29.161Z,21.90
2018-08-18T09:03:58.842Z,21.80
2018-08-18T09:06:28.489Z,22.00
2018-08-18T09:08:59.262Z,22.10
2018-08-18T09:11:30.064Z,22.30
2018-08-18T09:14:03.761Z,22.00
2018-08-18T09:16:33.964Z,21.90
2018-08-18T09:19:03.791Z,22.10
2018-08-18T09:22:10.765Z,22.00
2018-08-18T09:24:40.443Z,22.10
2018-08-18T09:27:09.970Z,22.60
2018-08-18T09:29:43.663Z,22.80
2018-08-18T09:32:13.845Z,22.70
2018-08-18T09:34:49.303Z,23.00
2018-08-18T09:37:19.000Z,22.90
2018-08-18T09:39:48.589Z,23.20
2018-08-18T09:42:20.229Z,23.20
2018-08-18T09:44:54.009Z,23.30
2018-08-18T09:47:23.553Z,23.40
2018-08-18T09:49:53.287Z,23.70
2018-08-18T09:52:22.836Z,23.70
2018-08-18T09:54:52.432Z,23.40
2018-08-18T09:57:22.334Z,23.60
2018-08-18T09:59:51.956Z,23.60
2018-08-18T10:02:21.569Z,23.50
2018-08-18T10:04:51.980Z,23.50
2018-08-18T10:07:21.597Z,23.60
2018-08-18T10:09:51.330Z,23.40
2018-08-18T10:12:20.898Z,23.80
2018-08-18T10:14:50.460Z,23.60
2018-08-18T10:17:20.061Z,23.80
2018-08-18T10:19:49.751Z,24.10
2018-08-18T10:22:19.604Z,24.30
2018-08-18T10:24:49.107Z,24.60
2018-08-18T10:27:19.514Z,24.90
2018-08-18T10:29:50.061Z,25.10
2018-08-18T10:32:19.670Z,25.50
2018-08-18T10:34:49.148Z,25.80
2018-08-18T10:37:18.952Z,25.80
2018-08-18T10:39:48.998Z,25.40
2018-08-18T10:42:23.685Z,24.30
2018-08-18T10:44:58.322Z,24.30
2018-08-18T10:47:28.186Z,24.80
2018-08-18T10:50:08.423Z,25.20
2018-08-18T10:52:49.511Z,25.50
2018-08-18T10:55:19.807Z,25.70
2018-08-18T10:57:58.694Z,26.30
2018-08-18T11:00:29.737Z,26.10
2018-08-18T11:03:01.594Z,25.90
2018-08-18T11:05:31.500Z,25.10
2018-08-18T11:08:06.580Z,24.90
2018-08-18T11:10:39.588Z,25.30
2018-08-18T11:13:09.244Z,25.50
2018-08-18T11:15:38.964Z,25.10
2018-08-18T11:18:08.759Z,25.40
2018-08-18T11:20:38.347Z,25.50
2018-08-18T11:23:16.615Z,25.40
2018-08-18T11:25:57.145Z,25.20
2018-08-18T11:28:26.780Z,25.70
2018-08-18T11:30:56.450Z,26.20
2018-08-18T11:33:42.133Z,25.70
2018-08-18T11:36:12.457Z,26.00
2018-08-18T11:38:42.017Z,25.80
2018-08-18T11:41:11.636Z,26.80
2018-08-18T11:43:46.224Z,26.60
2018-08-18T11:46:15.949Z,25.90
2018-08-18T11:48:45.622Z,26.00
2018-08-18T11:51:15.237Z,25.70
2018-08-18T11:53:56.835Z,26.30
2018-08-18T11:56:26.606Z,27.10
2018-08-18T11:59:05.392Z,27.30
2018-08-18T12:01:37.766Z,27.40
2018-08-18T12:04:07.603Z,27.90
2018-08-18T12:06:47.398Z,28.00
2018-08-18T12:09:17.182Z,27.10
2018-08-18T12:11:48.226Z,26.60
2018-08-18T12:14:17.806Z,26.30
2018-08-18T12:16:47.906Z,26.20
2018-08-18T12:19:17.532Z,26.00
2018-08-18T12:21:47.780Z,26.40
2018-08-18T12:24:19.027Z,27.60
2018-08-18T12:26:59.257Z,28.50
2018-08-18T12:29:31.482Z,28.80
2018-08-18T12:32:01.345Z,29.90
2018-08-18T12:34:30.937Z,29.30
2018-08-18T12:37:00.694Z,28.70
2018-08-18T12:39:30.665Z,27.90
2018-08-18T12:42:00.254Z,27.10
2018-08-18T12:44:34.845Z,26.90
2018-08-18T12:47:05.777Z,27.00
2018-08-18T12:49:35.395Z,27.10
2018-08-18T12:52:05.266Z,28.30
2018-08-18T12:54:34.823Z,28.70
2018-08-18T12:57:04.354Z,29.10
2018-08-18T12:59:33.998Z,29.10
2018-08-18T13:02:03.605Z,29.40
2018-08-18T13:04:33.110Z,28.00
2018-08-18T13:07:02.740Z,27.30
2018-08-18T13:09:32.303Z,27.00
2018-08-18T13:12:02.721Z,27.50
2018-08-18T13:14:32.430Z,28.00
2018-08-18T13:17:02.048Z,27.90
2018-08-18T13:19:34.286Z,28.70
2018-08-18T13:22:04.104Z,29.50
2018-08-18T13:24:33.833Z,29.10
2018-08-18T13:27:03.812Z,29.00
2018-08-18T13:29:34.077Z,29.90
2018-08-18T13:32:03.681Z,30.30
2018-08-18T13:34:33.218Z,30.80
2018-08-18T13:37:03.123Z,30.60
2018-08-18T13:39:32.754Z,31.10
2018-08-18T13:42:14.689Z,32.00
2018-08-18T13:44:44.228Z,32.40
2018-08-18T13:47:13.914Z,31.70
2018-08-18T13:49:43.436Z,31.40
2018-08-18T13:52:13.028Z,31.40
2018-08-18T13:54:48.465Z,31.70
2018-08-18T13:57:22.302Z,32.10
2018-08-18T13:59:53.905Z,31.40
2018-08-18T14:02:23.745Z,30.60
2018-08-18T14:04:53.524Z,30.40
2018-08-18T14:07:23.270Z,30.80
2018-08-18T14:09:56.939Z,30.30
2018-08-18T14:12:27.037Z,28.80
2018-08-18T14:14:56.603Z,28.20
2018-08-18T14:17:26.289Z,29.20
2018-08-18T14:19:55.894Z,30.70
2018-08-18T14:22:25.459Z,31.30
2018-08-18T14:24:55.299Z,30.70
2018-08-18T14:27:24.951Z,30.10
2018-08-18T14:29:54.595Z,29.70
2018-08-18T14:32:28.576Z,29.80
2018-08-18T14:35:07.247Z,29.30
2018-08-18T14:37:40.572Z,28.30
2018-08-18T14:40:16.809Z,27.80
2018-08-18T14:42:47.744Z,27.50
2018-08-18T14:45:28.008Z,27.70
2018-08-18T14:48:01.609Z,28.10
2018-08-18T14:50:34.173Z,28.60
2018-08-18T14:53:18.127Z,28.50
2018-08-18T14:55:52.109Z,28.30
2018-08-18T14:58:29.540Z,28.30
2018-08-18T15:01:17.436Z,28.10
2018-08-18T15:03:52.581Z,27.90
2018-08-18T15:06:24.581Z,28.20
2018-08-18T15:09:04.293Z,28.00
2018-08-18T15:11:35.751Z,28.00
2018-08-18T15:14:06.883Z,28.90
2018-08-18T15:16:36.692Z,28.40
2018-08-18T15:19:06.646Z,28.10
2018-08-18T15:21:40.425Z,29.10
2018-08-18T15:24:11.037Z,30.20
2018-08-18T15:26:43.122Z,30.40
2018-08-18T15:29:17.319Z,31.00
2018-08-18T15:31:48.731Z,31.10
2018-08-18T15:34:21.066Z,30.30
2018-08-18T15:36:53.101Z,29.70
2018-08-18T15:39:27.840Z,29.90
2018-08-18T15:41:59.992Z,29.20
2018-08-18T15:44:29.634Z,29.10
2018-08-18T15:46:59.568Z,29.80
2018-08-18T15:49:29.211Z,30.30
2018-08-18T15:51:58.718Z,30.00
2018-08-18T15:54:28.397Z,30.20
2018-08-18T15:56:58.036Z,29.60
2018-08-18T15:59:27.612Z,29.00
2018-08-18T16:01:57.256Z,28.70
2018-08-18T16:04:26.789Z,28.40
2018-08-18T16:06:56.383Z,28.30
2018-08-18T16:09:25.988Z,28.00
2018-08-18T16:11:57.333Z,28.00
2018-08-18T16:14:30.358Z,27.80
2018-08-18T16:17:02.233Z,27.50
2018-08-18T16:19:36.775Z,27.50
2018-08-18T16:22:08.878Z,27.40
2018-08-18T16:24:47.655Z,27.30
2018-08-18T16:27:27.444Z,27.50
2018-08-18T16:29:57.313Z,27.50
2018-08-18T16:32:28.924Z,27.60
2018-08-18T16:35:07.588Z,27.50
2018-08-18T16:37:43.470Z,27.40
2018-08-18T16:40:19.509Z,27.50
2018-08-18T16:42:49.226Z,27.50
2018-08-18T16:45:23.169Z,27.20
2018-08-18T16:47:54.208Z,26.90
2018-08-18T16:50:26.333Z,26.90
2018-08-18T16:52:59.320Z,26.80
2018-08-18T16:55:33.349Z,26.70
2018-08-18T16:58:05.873Z,26.60
2018-08-18T17:00:41.390Z,26.60
2018-08-18T17:03:12.792Z,26.60
2018-08-18T17:05:46.278Z,26.60
2018-08-18T17:08:16.383Z,26.50
2018-08-18T17:10:48.848Z,26.50
2018-08-18T17:13:18.624Z,26.30
2018-08-18T17:15:50.034Z,26.20
2018-08-18T17:18:20.574Z,26.10
2018-08-18T17:20:55.614Z,26.10
2018-08-18T17:23:25.233Z,25.90
2018-08-18T17:25:55.953Z,25.70
2018-08-18T17:28:27.256Z,25.60
2018-08-18T17:30:58.666Z,25.50
2018-08-18T17:33:29.031Z,25.50
2018-08-18T17:36:00.364Z,25.40
2018-08-18T17:38:30.324Z,25.40
2018-08-18T17:41:02.159Z,25.40
2018-08-18T17:43:32.595Z,25.50
2018-08-18T17:46:06.189Z,25.60
2018-08-18T17:48:55.463Z,25.60
2018-08-18T17:51:25.565Z,25.50
2018-08-18T17:53:55.504Z,25.40
2018-08-18T17:56:25.090Z,25.40
2018-08-18T17:58:55.783Z,25.20
2018-08-18T18:01:27.182Z,25.10
2018-08-18T18:03:58.064Z,25.10
2018-08-18T18:06:27.482Z,25.00
2018-08-18T18:08:57.139Z,25.00
2018-08-18T18:11:26.819Z,24.80
2018-08-18T18:13:56.397Z,24.80
2018-08-18T18:16:28.110Z,24.70
2018-08-18T18:18:59.475Z,24.60
2018-08-18T18:21:29.165Z,24.60
2018-08-18T18:24:00.329Z,24.50
2018-08-18T18:26:30.978Z,24.40
2018-08-18T18:29:00.915Z,24.20
2018-08-18T18:31:32.069Z,24.20
2018-08-18T18:34:03.244Z,24.10
2018-08-18T18:36:34.460Z,24.00
2018-08-18T18:39:05.004Z,24.00
2018-08-18T18:41:35.129Z,24.00
2018-08-18T18:44:04.884Z,23.90
2018-08-18T18:46:36.282Z,23.80
2018-08-18T18:49:19.792Z,23.70
2018-08-18T18:51:52.762Z,23.70
2018-08-18T18:54:23.795Z,23.60
2018-08-18T18:57:02.892Z,23.50
2018-08-18T18:59:46.858Z,23.30
2018-08-18T19:06:17.823Z,23.20
2018-08-18T19:09:02.073Z,23.20
2018-08-18T19:11:37.609Z,23.10
2018-08-18T19:14:18.849Z,23.10
2018-08-18T19:16:56.976Z,22.90
2018-08-18T19:19:31.984Z,22.90
2018-08-18T19:22:11.352Z,22.90
2018-08-18T19:24:54.761Z,22.90
2018-08-18T19:27:26.684Z,22.90
2018-08-18T19:29:59.858Z,22.80
2018-08-18T19:32:36.248Z,22.80
2018-08-18T19:35:13.494Z,22.80
2018-08-18T19:37:53.058Z,22.90
2018-08-18T19:40:24.141Z,23.00
2018-08-18T19:42:58.300Z,22.90
2018-08-18T19:45:35.425Z,22.70
2018-08-18T19:48:05.729Z,22.50
2018-08-18T19:50:35.468Z,22.40
2018-08-18T19:53:11.980Z,22.30
2018-08-18T19:55:41.392Z,22.20
2018-08-18T19:58:10.792Z,22.20
2018-08-18T20:00:41.106Z,22.10
2018-08-18T20:03:13.632Z,21.90
2018-08-18T20:05:43.021Z,21.90
2018-08-18T20:08:13.617Z,21.80
2018-08-18T20:10:48.856Z,21.90
2018-08-18T20:13:19.214Z,21.80
2018-08-18T20:15:53.348Z,21.80
2018-08-18T20:18:25.422Z,21.70
2018-08-18T20:21:00.276Z,21.60
2018-08-18T20:23:36.131Z,21.50
2018-08-18T20:26:05.786Z,21.50
2018-08-18T20:28:38.515Z,21.30
2018-08-18T20:31:10.517Z,21.20
2018-08-18T20:33:44.766Z,21.20
2018-08-18T20:36:21.109Z,21.20
2018-08-18T20:38:53.356Z,21.20
2018-08-18T20:41:26.430Z,21.10
2018-08-18T20:43:57.633Z,21.00
2018-08-18T20:46:28.709Z,20.90
2018-08-18T20:48:59.797Z,20.80
2018-08-18T20:51:36.462Z,20.70
2018-08-18T20:54:10.739Z,20.80
2018-08-18T20:56:43.756Z,20.70
2018-08-18T20:59:13.132Z,20.80
2018-08-18T21:01:52.294Z,20.60
2018-08-18T21:04:30.209Z,20.40
2018-08-18T21:07:07.692Z,20.20
2018-08-18T21:09:42.316Z,20.20
2018-08-18T21:12:16.617Z,20.30
2018-08-18T21:14:51.337Z,20.20
2018-08-18T21:17:32.960Z,20.40
2018-08-18T21:20:17.147Z,20.40
2018-08-18T21:22:49.911Z,20.40
2018-08-18T21:25:33.754Z,20.40
2018-08-18T21:28:11.848Z,20.40
2018-08-18T21:30:46.390Z,20.40
2018-08-18T21:33:19.894Z,20.40
2018-08-18T21:35:57.745Z,20.40
2018-08-18T21:38:35.329Z,20.30
2018-08-18T21:41:09.442Z,20.20
2018-08-18T21:43:50.754Z,20.20
2018-08-18T21:46:24.232Z,20.30
2018-08-18T21:48:58.384Z,20.30
2018-08-18T21:51:28.539Z,20.30
2018-08-18T21:54:07.713Z,20.20
2018-08-18T21:56:40.990Z,20.20
2018-08-18T21:59:24.789Z,20.30
2018-08-18T22:02:00.193Z,20.30
2018-08-18T22:04:33.001Z,20.20
2018-08-18T22:07:07.214Z,20.20
2018-08-18T22:09:58.492Z,20.30
2018-08-18T22:12:34.021Z,20.40
2018-08-18T22:15:19.384Z,20.40
2018-08-18T22:17:57.460Z,20.40
2018-08-18T22:20:32.557Z,20.30
2018-08-18T22:23:05.528Z,20.40
2018-08-18T22:25:38.685Z,20.40
2018-08-18T22:28:16.044Z,20.50
2018-08-18T22:30:56.714Z,20.40
2018-08-18T22:33:33.056Z,20.40
2018-08-18T22:36:06.556Z,20.50
2018-08-18T22:38:43.199Z,20.50
2018-08-18T22:41:20.562Z,20.50
2018-08-18T22:43:51.707Z,20.40
2018-08-18T22:46:31.377Z,20.30
2018-08-18T22:49:09.869Z,20.40
2018-08-18T22:51:47.504Z,20.40
2018-08-18T22:54:44.946Z,20.30
2018-08-18T22:57:25.045Z,20.30
2018-08-18T23:00:04.291Z,20.30
2018-08-18T23:02:37.579Z,20.40
2018-08-18T23:05:16.077Z,20.40
2018-08-18T23:08:04.390Z,20.20
2018-08-18T23:10:41.916Z,20.20
2018-08-18T23:13:25.211Z,20.20
2018-08-18T23:16:05.396Z,20.20
2018-08-18T23:18:41.372Z,20.10
2018-08-18T23:21:21.526Z,20.10
2018-08-18T23:23:56.032Z,20.10
2018-08-18T23:26:31.389Z,19.90
2018-08-18T23:29:06.329Z,19.80
2018-08-18T23:31:47.507Z,19.80
2018-08-18T23:34:23.356Z,19.80
2018-08-18T23:37:03.377Z,19.80
2018-08-18T23:39:34.166Z,19.70
2018-08-18T23:42:14.066Z,19.70
2018-08-18T23:44:43.652Z,19.80
2018-08-18T23:47:13.308Z,19.80
2018-08-18T23:49:42.792Z,19.80
2018-08-18T23:52:12.270Z,19.70
2018-08-18T23:54:41.628Z,19.70
2018-08-18T23:57:11.125Z,19.70
2018-08-18T23:59:40.507Z,19.60
